createdAt,value
2023-04-16T00:01:47.043Z,79.90
2023-04-16T00:04:14.450Z,80.00
2023-04-16T00:06:41.969Z,80.00
2023-04-16T00:09:09.619Z,80.10
2023-04-16T00:11:37.265Z,80.00
2023-04-16T00:14:05.085Z,79.90
2023-04-16T00:16:32.715Z,79.80
2023-04-16T00:19:01.156Z,79.30
2023-04-16T00:21:28.469Z,79.20
2023-04-16T00:23:55.778Z,79.10
2023-04-16T00:26:23.867Z,79.20
2023-04-16T00:28:51.436Z,79.40
2023-04-16T00:31:18.817Z,79.60
2023-04-16T00:33:46.222Z,79.50
2023-04-16T00:36:13.647Z,79.30
2023-04-16T00:38:41.143Z,79.50
2023-04-16T00:41:08.424Z,79.60
2023-04-16T00:43:35.990Z,79.70
2023-04-16T00:46:07.309Z,79.60
2023-04-16T00:48:36.672Z,79.80
2023-04-16T00:51:08.847Z,79.70
2023-04-16T00:53:36.344Z,79.80
2023-04-16T00:56:05.786Z,79.80
2023-04-16T00:58:35.239Z,79.60
2023-04-16T01:01:02.976Z,79.60
2023-04-16T01:03:44.814Z,79.80
2023-04-16T01:06:12.748Z,79.70
2023-04-16T01:08:40.245Z,79.80
2023-04-16T01:11:07.666Z,79.60
2023-04-16T01:13:39.442Z,79.50
2023-04-16T01:16:08.567Z,79.40
2023-04-16T01:18:36.810Z,79.00
2023-04-16T01:21:04.760Z,78.90
2023-04-16T01:23:32.550Z,78.30
2023-04-16T01:25:59.921Z,78.30
2023-04-16T01:28:27.412Z,77.90
2023-04-16T01:30:54.804Z,77.90
2023-04-16T01:33:37.792Z,78.20
2023-04-16T01:36:07.472Z,78.80
2023-04-16T01:38:34.703Z,79.10
2023-04-16T01:41:02.149Z,79.70
2023-04-16T01:43:29.508Z,80.00
2023-04-16T01:46:18.495Z,80.40
2023-04-16T01:48:46.030Z,80.70
2023-04-16T01:51:13.291Z,81.30
2023-04-16T01:53:40.726Z,81.80
2023-04-16T01:56:07.978Z,82.10
2023-04-16T01:58:36.344Z,82.70
2023-04-16T02:01:04.628Z,83.40
2023-04-16T02:03:32.592Z,83.90
2023-04-16T02:06:01.345Z,84.10
2023-04-16T02:08:29.447Z,84.50
2023-04-16T02:10:57.027Z,85.10
2023-04-16T02:13:26.312Z,85.50
2023-04-16T02:15:54.088Z,85.50
2023-04-16T02:18:32.489Z,84.90
2023-04-16T02:21:00.676Z,84.50
2023-04-16T02:23:28.599Z,84.30
2023-04-16T02:25:58.244Z,83.90
2023-04-16T02:28:25.587Z,83.00
2023-04-16T02:30:52.951Z,82.60
2023-04-16T02:33:21.415Z,82.00
2023-04-16T02:35:58.170Z,82.20
2023-04-16T02:38:25.630Z,82.20
2023-04-16T02:40:53.053Z,82.40
2023-04-16T02:43:20.282Z,82.30
2023-04-16T02:45:47.625Z,82.30
2023-04-16T02:48:14.894Z,82.20
2023-04-16T02:50:42.087Z,82.20
2023-04-16T02:53:11.955Z,82.20
2023-04-16T02:55:39.246Z,82.30
2023-04-16T02:58:06.658Z,82.20
2023-04-16T03:00:33.905Z,82.00
2023-04-16T03:03:01.400Z,82.20
2023-04-16T03:05:28.665Z,82.30
2023-04-16T03:07:56.896Z,82.10
2023-04-16T03:10:24.338Z,81.80
2023-04-16T03:12:51.672Z,81.60
2023-04-16T03:15:19.117Z,81.10
2023-04-16T03:17:46.317Z,80.80
2023-04-16T03:20:14.561Z,80.40
2023-04-16T03:22:42.025Z,79.90
2023-04-16T03:25:09.664Z,79.30
2023-04-16T03:27:37.141Z,78.90
2023-04-16T03:30:05.376Z,78.50
2023-04-16T03:32:35.089Z,77.80
2023-04-16T03:35:08.962Z,77.10
2023-04-16T03:37:37.280Z,76.50
2023-04-16T03:40:07.876Z,76.00
2023-04-16T03:42:35.199Z,75.70
2023-04-16T03:45:03.949Z,75.70
2023-04-16T03:47:32.304Z,75.50
2023-04-16T03:50:02.729Z,75.50
2023-04-16T03:52:30.032Z,75.30
2023-04-16T03:54:57.406Z,74.50
2023-04-16T03:57:27.455Z,73.70
2023-04-16T03:59:59.072Z,73.60
2023-04-16T04:02:30.277Z,73.70
2023-04-16T04:04:57.732Z,73.80
2023-04-16T04:07:25.139Z,73.90
2023-04-16T04:09:53.167Z,73.90
2023-04-16T04:12:20.973Z,73.40
2023-04-16T04:14:48.400Z,73.10
2023-04-16T04:17:15.783Z,72.50
2023-04-16T04:19:54.330Z,72.20
2023-04-16T04:22:28.845Z,72.30
2023-04-16T04:24:56.036Z,72.10
2023-04-16T04:27:23.834Z,71.90
2023-04-16T04:29:51.114Z,71.80
2023-04-16T04:32:18.342Z,71.60
2023-04-16T04:34:49.627Z,71.20
2023-04-16T04:37:16.978Z,70.80
2023-04-16T04:39:44.838Z,70.70
2023-04-16T04:42:13.040Z,70.50
2023-04-16T04:44:41.456Z,70.40
2023-04-16T04:47:09.578Z,70.10
2023-04-16T04:49:36.828Z,70.20
2023-04-16T04:52:04.234Z,69.80
2023-04-16T04:54:33.369Z,69.80
2023-04-16T04:57:01.606Z,69.90
2023-04-16T04:59:30.169Z,70.50
2023-04-16T05:01:57.696Z,70.80
2023-04-16T05:04:25.003Z,71.70
2023-04-16T05:06:52.315Z,72.50
2023-04-16T05:09:19.529Z,73.00
2023-04-16T05:11:50.047Z,73.50
2023-04-16T05:14:17.317Z,73.70
2023-04-16T05:16:44.565Z,74.10
2023-04-16T05:19:12.096Z,77.00
2023-04-16T05:21:39.544Z,89.40
2023-04-16T05:24:07.880Z,97.00
2023-04-16T05:26:35.229Z,99.90
2023-04-16T05:29:02.475Z,99.90
2023-04-16T05:31:29.759Z,99.90
2023-04-16T05:33:57.144Z,99.90
2023-04-16T05:36:24.285Z,99.90
2023-04-16T05:38:51.470Z,99.90
2023-04-16T05:41:18.714Z,99.90
2023-04-16T05:43:45.922Z,99.90
2023-04-16T05:46:13.282Z,99.90
2023-04-16T05:48:40.510Z,99.90
2023-04-16T05:51:07.743Z,99.90
2023-04-16T05:53:35.129Z,99.90
2023-04-16T05:56:02.338Z,99.90
2023-04-16T05:58:29.601Z,99.90
2023-04-16T06:00:56.838Z,98.00
2023-04-16T06:03:24.171Z,97.60
2023-04-16T06:05:51.730Z,95.80
2023-04-16T06:08:19.196Z,95.00
2023-04-16T06:10:47.659Z,95.60
2023-04-16T06:13:14.965Z,97.50
2023-04-16T06:15:42.332Z,98.80
2023-04-16T06:18:09.789Z,99.70
2023-04-16T06:20:37.197Z,99.90
2023-04-16T06:23:04.433Z,99.90
2023-04-16T06:25:31.691Z,99.90
2023-04-16T06:27:58.900Z,98.80
2023-04-16T06:30:26.532Z,99.60
2023-04-16T06:32:54.355Z,99.90
2023-04-16T06:35:21.718Z,99.90
2023-04-16T06:37:49.121Z,99.90
2023-04-16T06:40:16.732Z,99.90
2023-04-16T06:42:45.517Z,99.90
2023-04-16T06:45:13.451Z,99.80
2023-04-16T06:47:40.739Z,99.90
2023-04-16T06:50:08.497Z,99.30
2023-04-16T06:52:36.154Z,99.90
2023-04-16T06:55:03.608Z,99.90
2023-04-16T06:57:30.977Z,99.90
2023-04-16T06:59:58.305Z,99.90
2023-04-16T07:02:25.677Z,99.90
2023-04-16T07:04:53.157Z,99.90
2023-04-16T07:07:20.439Z,99.90
2023-04-16T07:09:47.690Z,99.90
2023-04-16T07:12:15.305Z,99.90
2023-04-16T07:14:42.662Z,99.90
2023-04-16T07:17:09.803Z,99.90
2023-04-16T07:19:40.319Z,99.90
2023-04-16T07:22:07.669Z,99.90
2023-04-16T07:24:35.818Z,99.90
2023-04-16T07:27:03.005Z,99.90
2023-04-16T07:29:30.444Z,99.90
2023-04-16T07:31:58.088Z,99.90
2023-04-16T07:34:25.329Z,99.90
2023-04-16T07:36:52.518Z,99.90
2023-04-16T07:39:19.803Z,99.90
2023-04-16T07:41:47.059Z,99.90
2023-04-16T07:44:14.447Z,99.90
2023-04-16T07:46:47.000Z,98.70
2023-04-16T07:49:15.050Z,97.40
2023-04-16T07:51:42.379Z,96.50
2023-04-16T07:54:11.239Z,93.70
2023-04-16T07:56:38.640Z,92.60
2023-04-16T07:59:21.046Z,91.60
2023-04-16T08:01:50.754Z,91.20
2023-04-16T08:04:23.602Z,87.50
2023-04-16T08:06:53.116Z,87.00
2023-04-16T08:09:21.816Z,87.90
2023-04-16T08:11:50.152Z,86.30
2023-04-16T08:14:18.092Z,83.90
2023-04-16T08:16:45.400Z,83.90
2023-04-16T08:19:12.899Z,81.80
2023-04-16T08:21:40.597Z,80.10
2023-04-16T08:24:08.107Z,78.50
2023-04-16T08:26:35.570Z,79.00
2023-04-16T08:29:02.830Z,79.40
2023-04-16T08:31:30.216Z,78.60
2023-04-16T08:34:00.558Z,75.10
2023-04-16T08:36:27.986Z,73.80
2023-04-16T08:38:55.359Z,74.10
2023-04-16T08:41:24.151Z,73.90
2023-04-16T08:43:54.807Z,68.70
2023-04-16T08:46:25.164Z,65.70
2023-04-16T08:48:56.356Z,64.40
2023-04-16T08:51:24.354Z,64.20
2023-04-16T08:54:03.084Z,64.90
2023-04-16T08:56:35.742Z,64.70
2023-04-16T08:59:05.637Z,60.50
2023-04-16T09:01:34.122Z,59.70
2023-04-16T09:04:06.333Z,59.20
2023-04-16T09:06:35.296Z,59.80
2023-04-16T09:09:07.102Z,60.60
2023-04-16T09:11:35.118Z,60.10
2023-04-16T09:14:03.433Z,60.20
2023-04-16T09:16:34.820Z,59.00
2023-04-16T09:19:02.202Z,59.00
2023-04-16T09:21:29.989Z,59.70
2023-04-16T09:23:57.611Z,60.60
2023-04-16T09:26:25.273Z,57.70
2023-04-16T09:28:52.577Z,58.80
2023-04-16T09:31:20.465Z,59.20
2023-04-16T09:34:03.812Z,60.00
2023-04-16T09:36:32.564Z,58.90
2023-04-16T09:39:00.848Z,59.90
2023-04-16T09:41:30.653Z,59.30
2023-04-16T09:44:04.260Z,58.40
2023-04-16T09:46:32.473Z,60.40
2023-04-16T09:49:15.552Z,59.70
2023-04-16T09:51:44.495Z,59.00
2023-04-16T09:54:11.764Z,59.70
2023-04-16T09:56:46.730Z,59.10
2023-04-16T09:59:24.320Z,60.20
2023-04-16T10:02:12.264Z,61.10
2023-04-16T10:04:51.899Z,62.30
2023-04-16T10:07:22.046Z,62.20
2023-04-16T10:09:50.735Z,62.20
2023-04-16T10:12:18.072Z,62.60
2023-04-16T10:14:45.716Z,62.60
2023-04-16T10:17:14.344Z,61.60
2023-04-16T10:19:41.967Z,61.20
2023-04-16T10:22:09.569Z,60.40
2023-04-16T10:24:36.885Z,60.30
2023-04-16T10:27:04.214Z,57.90
2023-04-16T10:29:33.180Z,58.80
2023-04-16T10:32:01.456Z,59.80
2023-04-16T10:34:29.499Z,59.70
2023-04-16T10:36:57.009Z,60.60
2023-04-16T10:39:27.846Z,59.70
2023-04-16T10:42:12.100Z,60.70
2023-04-16T10:44:44.386Z,61.90
2023-04-16T10:47:13.817Z,64.80
2023-04-16T10:49:41.746Z,64.80
2023-04-16T10:52:17.309Z,65.60
2023-04-16T10:54:46.609Z,66.30
2023-04-16T10:57:18.101Z,65.70
2023-04-16T10:59:46.665Z,64.60
2023-04-16T11:02:16.305Z,65.60
2023-04-16T11:04:45.967Z,66.00
2023-04-16T11:07:19.578Z,65.40
2023-04-16T11:10:00.084Z,65.00
2023-04-16T11:12:34.784Z,65.50
2023-04-16T11:15:04.937Z,63.20
2023-04-16T11:17:41.778Z,62.60
2023-04-16T11:20:28.301Z,61.60
2023-04-16T11:22:57.461Z,59.80
2023-04-16T11:25:31.883Z,57.20
2023-04-16T11:27:59.374Z,54.00
2023-04-16T11:30:37.819Z,51.80
2023-04-16T11:33:08.612Z,51.80
2023-04-16T11:35:36.115Z,51.90
2023-04-16T11:38:05.980Z,53.20
2023-04-16T11:40:34.020Z,53.90
2023-04-16T11:43:19.267Z,55.40
2023-04-16T11:46:26.940Z,55.10
2023-04-16T11:49:07.381Z,53.90
2023-04-16T11:51:43.354Z,51.60
2023-04-16T11:54:18.557Z,49.20
2023-04-16T11:56:48.242Z,49.80
2023-04-16T11:59:20.938Z,49.60
2023-04-16T12:01:50.432Z,50.30
2023-04-16T12:04:21.242Z,51.80
2023-04-16T12:07:10.874Z,52.80
2023-04-16T12:09:43.039Z,52.90
2023-04-16T12:12:32.132Z,51.70
2023-04-16T12:15:02.136Z,51.90
2023-04-16T12:17:30.238Z,52.50
2023-04-16T12:20:06.031Z,52.00
2023-04-16T12:22:36.819Z,50.60
2023-04-16T12:25:11.322Z,48.30
2023-04-16T12:27:46.776Z,45.00
2023-04-16T12:30:21.336Z,45.00
2023-04-16T12:32:55.577Z,43.70
2023-04-16T12:35:34.671Z,44.10
2023-04-16T12:38:04.853Z,46.00
2023-04-16T12:40:32.113Z,45.90
2023-04-16T12:42:59.423Z,47.20
2023-04-16T12:45:26.824Z,48.60
2023-04-16T12:47:54.485Z,48.90
2023-04-16T12:50:22.223Z,51.20
2023-04-16T12:52:49.564Z,52.70
2023-04-16T12:55:19.595Z,54.30
2023-04-16T12:57:49.085Z,55.70
2023-04-16T13:00:16.672Z,54.30
2023-04-16T13:02:43.932Z,53.90
2023-04-16T13:05:11.539Z,49.50
2023-04-16T13:07:38.921Z,48.10
2023-04-16T13:10:06.871Z,47.90
2023-04-16T13:12:34.340Z,47.70
2023-04-16T13:15:01.673Z,47.20
2023-04-16T13:17:28.935Z,46.40
2023-04-16T13:19:56.253Z,45.50
2023-04-16T13:22:23.551Z,44.20
2023-04-16T13:24:50.932Z,45.90
2023-04-16T13:27:18.219Z,48.50
2023-04-16T13:29:45.581Z,49.70
2023-04-16T13:32:14.143Z,49.00
2023-04-16T13:34:41.599Z,49.60
2023-04-16T13:37:08.842Z,51.20
2023-04-16T13:39:36.184Z,52.70
2023-04-16T13:42:03.503Z,52.90
2023-04-16T13:44:30.808Z,53.60
2023-04-16T13:46:58.363Z,54.80
2023-04-16T13:49:25.694Z,55.20
2023-04-16T13:51:52.988Z,55.60
2023-04-16T13:54:20.404Z,55.40
2023-04-16T13:56:47.776Z,53.90
2023-04-16T13:59:15.879Z,54.20
2023-04-16T14:01:43.116Z,52.80
2023-04-16T14:04:10.469Z,51.20
2023-04-16T14:06:37.721Z,51.50
2023-04-16T14:09:05.571Z,52.50
2023-04-16T14:11:32.790Z,52.80
2023-04-16T14:14:00.209Z,52.50
2023-04-16T14:16:27.777Z,51.20
2023-04-16T14:18:55.060Z,50.00
2023-04-16T14:21:22.410Z,49.20
2023-04-16T14:23:50.090Z,48.60
2023-04-16T14:26:17.421Z,48.70
2023-04-16T14:28:44.994Z,49.00
2023-04-16T14:31:12.545Z,48.10
2023-04-16T14:33:39.650Z,48.30
2023-04-16T14:36:07.079Z,49.40
2023-04-16T14:38:34.285Z,50.30
2023-04-16T14:41:01.685Z,53.90
2023-04-16T14:43:28.951Z,56.60
2023-04-16T14:45:58.694Z,57.80
2023-04-16T14:48:26.237Z,57.50
2023-04-16T14:50:54.110Z,57.40
2023-04-16T14:53:24.121Z,58.50
2023-04-16T14:55:53.393Z,56.90
2023-04-16T14:58:20.647Z,56.40
2023-04-16T15:00:47.921Z,56.00
2023-04-16T15:03:15.445Z,56.20
2023-04-16T15:05:42.835Z,56.10
2023-04-16T15:08:10.364Z,55.70
2023-04-16T15:10:38.255Z,54.40
2023-04-16T15:13:05.541Z,54.20
2023-04-16T15:15:32.719Z,53.70
2023-04-16T15:18:00.563Z,53.30
2023-04-16T15:20:28.196Z,54.80
2023-04-16T15:22:55.449Z,56.10
2023-04-16T15:25:24.613Z,57.30
2023-04-16T15:27:52.577Z,58.70
2023-04-16T15:30:19.821Z,59.70
2023-04-16T15:32:47.275Z,60.50
2023-04-16T15:35:14.722Z,60.60
2023-04-16T15:37:41.921Z,61.20
2023-04-16T15:40:09.378Z,60.70
2023-04-16T15:42:37.049Z,60.60
2023-04-16T15:45:04.585Z,60.50
2023-04-16T15:47:31.780Z,60.40
2023-04-16T15:49:59.012Z,60.80
2023-04-16T15:52:26.196Z,61.40
2023-04-16T15:54:54.529Z,61.30
2023-04-16T15:57:21.804Z,61.20
2023-04-16T16:00:03.467Z,61.60
2023-04-16T16:02:34.237Z,61.40
2023-04-16T16:05:01.786Z,61.40
2023-04-16T16:07:29.142Z,61.00
2023-04-16T16:09:56.411Z,61.30
2023-04-16T16:12:23.671Z,60.10
2023-04-16T16:14:51.116Z,59.70
2023-04-16T16:17:20.438Z,60.00
2023-04-16T16:19:47.870Z,59.90
2023-04-16T16:22:16.149Z,60.00
2023-04-16T16:24:43.466Z,60.30
2023-04-16T16:27:10.674Z,57.70
2023-04-16T16:29:37.969Z,54.70
2023-04-16T16:32:05.537Z,50.80
2023-04-16T16:34:32.808Z,49.80
2023-04-16T16:37:00.106Z,49.10
2023-04-16T16:39:27.470Z,48.80
2023-04-16T16:41:54.776Z,49.00
2023-04-16T16:44:22.689Z,48.20
2023-04-16T16:46:50.784Z,48.10
2023-04-16T16:49:18.179Z,48.20
2023-04-16T16:51:46.750Z,48.20
2023-04-16T16:54:14.123Z,48.70
2023-04-16T16:56:41.549Z,48.80
2023-04-16T16:59:09.225Z,48.90
2023-04-16T17:01:36.645Z,49.10
2023-04-16T17:04:04.475Z,49.20
2023-04-16T17:06:32.913Z,49.40
2023-04-16T17:09:00.176Z,49.40
2023-04-16T17:11:27.446Z,49.60
2023-04-16T17:13:54.577Z,49.40
2023-04-16T17:16:21.880Z,49.70
2023-04-16T17:18:49.019Z,50.30
2023-04-16T17:21:16.775Z,50.10
2023-04-16T17:23:44.221Z,50.00
2023-04-16T17:26:11.430Z,49.90
2023-04-16T17:28:38.675Z,49.80
2023-04-16T17:31:08.527Z,49.90
2023-04-16T17:33:36.019Z,50.30
2023-04-16T17:36:03.249Z,50.60
2023-04-16T17:38:30.611Z,50.80
2023-04-16T17:40:58.176Z,50.90
2023-04-16T17:43:25.582Z,51.10
2023-04-16T17:45:52.805Z,51.40
2023-04-16T17:48:20.090Z,51.50
2023-04-16T17:50:47.337Z,51.70
2023-04-16T17:53:14.740Z,52.60
2023-04-16T17:55:56.039Z,58.60
2023-04-16T17:58:26.417Z,66.00
2023-04-16T18:00:53.603Z,68.50
2023-04-16T18:03:22.070Z,70.30
2023-04-16T18:05:49.740Z,71.50
2023-04-16T18:08:16.985Z,72.70
2023-04-16T18:10:44.189Z,73.80
2023-04-16T18:13:11.508Z,73.90
2023-04-16T18:15:39.001Z,73.10
2023-04-16T18:18:06.565Z,72.90
2023-04-16T18:20:34.116Z,63.90
2023-04-16T18:23:01.486Z,61.70
2023-04-16T18:25:34.390Z,59.30
2023-04-16T18:28:03.972Z,60.10
2023-04-16T18:30:31.359Z,60.80
2023-04-16T18:35:28.808Z,59.60
2023-04-16T18:37:55.997Z,59.20
2023-04-16T18:40:23.138Z,59.20
2023-04-16T18:42:50.457Z,59.10
2023-04-16T18:45:21.918Z,58.10
2023-04-16T18:47:50.436Z,57.50
2023-04-16T18:50:17.870Z,56.60
2023-04-16T18:52:45.057Z,56.40
2023-04-16T18:55:12.350Z,56.20
2023-04-16T18:57:39.465Z,56.30
2023-04-16T19:00:12.666Z,56.30
2023-04-16T19:02:41.240Z,56.80
2023-04-16T19:05:09.903Z,57.70
2023-04-16T19:07:37.805Z,58.60
2023-04-16T19:10:06.128Z,59.70
2023-04-16T19:12:33.364Z,62.00
2023-04-16T19:15:00.904Z,64.30
2023-04-16T19:17:28.019Z,65.30
2023-04-16T19:19:55.284Z,66.70
2023-04-16T19:22:22.556Z,68.10
2023-04-16T19:24:49.764Z,69.10
2023-04-16T19:27:16.953Z,70.10
2023-04-16T19:29:45.398Z,70.80
2023-04-16T19:32:15.018Z,71.20
2023-04-16T19:34:42.293Z,70.40
2023-04-16T19:37:09.456Z,70.80
2023-04-16T19:39:36.781Z,71.80
2023-04-16T19:42:04.335Z,71.50
2023-04-16T19:44:32.464Z,71.40
2023-04-16T19:46:59.833Z,71.20
2023-04-16T19:49:34.323Z,67.50
2023-04-16T19:52:01.947Z,67.30
2023-04-16T19:54:29.326Z,67.00
2023-04-16T19:56:57.290Z,66.00
2023-04-16T19:59:28.207Z,65.60
2023-04-16T20:01:55.390Z,66.00
2023-04-16T20:04:22.707Z,63.70
2023-04-16T20:06:50.028Z,63.40
2023-04-16T20:09:20.055Z,60.60
2023-04-16T20:11:47.739Z,60.00
2023-04-16T20:14:14.850Z,59.20
2023-04-16T20:16:43.765Z,58.80
2023-04-16T20:19:11.352Z,58.20
2023-04-16T20:21:40.564Z,57.70
2023-04-16T20:24:10.677Z,57.30
2023-04-16T20:26:38.080Z,57.40
2023-04-16T20:29:05.389Z,57.60
2023-04-16T20:31:32.581Z,57.90
2023-04-16T20:33:59.765Z,58.30
2023-04-16T20:36:28.055Z,58.80
2023-04-16T20:38:55.309Z,59.10
2023-04-16T20:41:22.720Z,59.50
2023-04-16T20:43:53.122Z,59.80
2023-04-16T20:46:24.424Z,60.20
2023-04-16T20:48:52.139Z,60.70
2023-04-16T20:51:19.459Z,61.10
2023-04-16T20:53:46.725Z,61.40
2023-04-16T20:56:15.147Z,61.70
2023-04-16T20:58:42.932Z,62.00
2023-04-16T21:01:10.434Z,62.20
2023-04-16T21:03:38.435Z,61.70
2023-04-16T21:06:05.925Z,61.60
2023-04-16T21:08:33.102Z,61.50
2023-04-16T21:11:00.761Z,61.60
2023-04-16T21:13:28.072Z,61.70
2023-04-16T21:15:55.432Z,62.10
2023-04-16T21:18:22.722Z,62.40
2023-04-16T21:20:49.978Z,63.00
2023-04-16T21:23:17.192Z,63.00
2023-04-16T21:25:44.414Z,62.70
2023-04-16T21:28:11.684Z,62.90
2023-04-16T21:30:39.014Z,62.60
2023-04-16T21:33:06.809Z,62.30
2023-04-16T21:35:34.333Z,61.70
2023-04-16T21:38:01.692Z,61.00
2023-04-16T21:40:28.894Z,60.40
2023-04-16T21:42:56.122Z,60.00
2023-04-16T21:45:23.463Z,59.60
2023-04-16T21:47:50.813Z,58.90
2023-04-16T21:50:18.417Z,58.90
2023-04-16T21:52:46.718Z,59.10
2023-04-16T21:55:16.973Z,59.30
2023-04-16T21:57:44.317Z,60.10
2023-04-16T22:00:15.063Z,60.60
2023-04-16T22:02:43.383Z,61.20
2023-04-16T22:05:11.460Z,61.60
2023-04-16T22:07:39.018Z,62.30
2023-04-16T22:10:07.043Z,62.50
2023-04-16T22:12:37.903Z,62.80
2023-04-16T22:15:06.058Z,63.20
2023-04-16T22:17:37.141Z,63.70
2023-04-16T22:20:13.279Z,64.00
2023-04-16T22:22:41.959Z,64.30
2023-04-16T22:25:09.930Z,65.20
2023-04-16T22:27:37.730Z,66.20
2023-04-16T22:30:07.295Z,66.80
2023-04-16T22:32:34.623Z,67.40
2023-04-16T22:35:02.173Z,68.00
2023-04-16T22:37:29.629Z,68.00
2023-04-16T22:39:56.866Z,68.50
2023-04-16T22:42:24.440Z,68.50
2023-04-16T22:44:51.753Z,68.80
2023-04-16T22:47:19.024Z,68.80
2023-04-16T22:49:47.853Z,68.40
2023-04-16T22:52:15.139Z,68.20
2023-04-16T22:54:42.301Z,68.00
2023-04-16T22:57:09.571Z,67.70
2023-04-16T22:59:36.970Z,67.50
2023-04-16T23:02:04.330Z,67.40
2023-04-16T23:04:33.086Z,67.40
2023-04-16T23:07:00.590Z,67.40
2023-04-16T23:09:27.802Z,67.60
2023-04-16T23:11:54.980Z,67.60
2023-04-16T23:14:22.134Z,67.60
2023-04-16T23:16:49.424Z,67.50
2023-04-16T23:19:16.826Z,67.40
2023-04-16T23:21:44.138Z,67.30
2023-04-16T23:24:11.418Z,67.10
2023-04-16T23:26:38.632Z,67.00
2023-04-16T23:29:05.960Z,67.00
2023-04-16T23:31:33.290Z,66.90
2023-04-16T23:34:00.555Z,67.00
2023-04-16T23:36:27.713Z,67.20
2023-04-16T23:38:55.546Z,67.30
2023-04-16T23:41:23.794Z,67.40
2023-04-16T23:43:50.996Z,67.40
2023-04-16T23:46:18.210Z,67.40
2023-04-16T23:48:45.478Z,67.40
2023-04-16T23:51:12.740Z,67.20
2023-04-16T23:53:40.935Z,67.00
2023-04-16T23:56:11.379Z,67.10
2023-04-16T23:58:38.624Z,67.00
